Teneriffa, Canary Islands

31. tammikuuta 2015 klo 00:43 (WET) (GMT +0000)
s.Cristobal de La Laguna | Change Station
CLOSE
Current Station
Omat sääasemat
Location: San Cristóbal De La Laguna, CANARIAS
Korkeus: 1795 ft
Lähimmät sääasemat

Kork 1795 ft 28.48 °N, 16.31 °W | Updated 19 seconds ago

Patches of Fog
Sumua paikka paikoin
55.9 °F
Tuntuu kuin 55.9 °F
N
6.5
Tuuli Suunnaltaan vaihteleva Tuuli ilmansuunnasta Pohjoisen ja koillisen välinen
Gusts 7.4 mph

Tänään
Korkea -- | Matala -- °F
--% Sateen mahd.
Eilen
Korkea -- | Matala -- °F
Precip. -- tuumaa
7:53 AM 6:43 PM
Kasvava kupera kuu, 86% visible
Ilmanpaine 30.24 tuumaa
Näkyvyys 0.6 mailia
Pilviä Vähäistä pilvisyyttä 300 ft
Pilvistä 700 ft
Kastepiste 56 °F
Ilmankosteus 99%
Sademäärä 0.02 tuumaa
Lumensyvyys Ei saatavilla
UV 0.0 / 12
Pollen Ei saatavilla
Ilmanlaatu Ei saatavilla
Flu Activity Ei saatavilla
METAR GCXO 310000Z 30020KT 280V340 0900 R30/1800N R12/1600U BCFG DZ FEW000 SCT003 BKN007 12/12 Q1024 NOSIG

More Conditions Fewer Conditions

Ilmanpaine 30.24 tuumaa
Näkyvyys 0.6 mailia
Pilviä Vähäistä pilvisyyttä 300 ft
Pilvistä 700 ft
Kastepiste 56 °F
Ilmankosteus 99%
Sademäärä 0.02 tuumaa
Lumensyvyys Ei saatavilla
UV 0.0 / 12
Pollen Ei saatavilla
Ilmanlaatu Ei saatavilla
Flu Activity Ei saatavilla
METAR GCXO 310000Z 30020KT 280V340 0900 R30/1800N R12/1600U BCFG DZ FEW000 SCT003 BKN007 12/12 Q1024 NOSIG

More Conditions Fewer Conditions

10-Day Weather Forecast

Almanac

Tähtitiede

Jan. 31, 2015 Nousuaika Laskuaika
Valoisa aika
Porvarillinen hämärä
Nauttinen hämärä
Astronominen hämärä
Kuu
Näkyvän valon pituus
Päivän pituus
Tomorrow will be .
, % of the Moon is Illuminated

Tämän päivän ennätykset

Country Highs Country Lows

Community

WunderPhotos

Upload Photos

1,791,942 photos uploaded!

WunderBlogs® & News

Nearby

Ilmanlaatu

  Ilmanlaatu AQ Index Pollutant
Not available.

Lumensyvyys

Station Depth Korkeus

Maanjäristysaktiivisuus

Paikkakunta Distance Mag. Time & Date
Minimum magnitude displayed is 2.5.

Coastal Water Temperatures

Paikka Lämpötila

Lähimmät sääasemat